sensor_id;sensor_type;location;lat;lon;timestamp;P1;P2;P0
29460;PMS7003;16428;47.836;35.106;2023-03-02T00:01:30;41.00;38.25;29.75
29460;PMS7003;16428;47.836;35.106;2023-03-02T00:04:04;48.75;42.00;29.00
29460;PMS7003;16428;47.836;35.106;2023-03-02T00:06:33;47.50;39.50;27.00
29460;PMS7003;16428;47.836;35.106;2023-03-02T00:09:03;39.50;34.25;25.25
29460;PMS7003;16428;47.836;35.106;2023-03-02T00:11:33;49.67;41.33;30.00
29460;PMS7003;16428;47.836;35.106;2023-03-02T00:14:05;58.33;47.00;32.33
29460;PMS7003;16428;47.836;35.106;2023-03-02T00:16:35;65.67;50.67;35.00
29460;PMS7003;16428;47.836;35.106;2023-03-02T00:19:02;51.67;43.67;31.33
29460;PMS7003;16428;47.836;35.106;2023-03-02T00:21:30;41.33;37.33;27.00
29460;PMS7003;16428;47.836;35.106;2023-03-02T00:23:58;46.67;36.00;26.00
29460;PMS7003;16428;47.836;35.106;2023-03-02T00:26:26;47.00;36.67;26.33
29460;PMS7003;16428;47.836;35.106;2023-03-02T00:28:54;44.33;40.33;26.00
29460;PMS7003;16428;47.836;35.106;2023-03-02T00:31:22;35.25;31.75;24.00
29460;PMS7003;16428;47.836;35.106;2023-03-02T00:33:54;32.75;31.75;24.25
29460;PMS7003;16428;47.836;35.106;2023-03-02T00:36:22;41.50;32.75;25.50
29460;PMS7003;16428;47.836;35.106;2023-03-02T00:38:49;32.75;26.50;20.00
29460;PMS7003;16428;47.836;35.106;2023-03-02T00:41:20;38.75;34.25;21.50
29460;PMS7003;16428;47.836;35.106;2023-03-02T00:43:48;30.67;25.67;15.33
29460;PMS7003;16428;47.836;35.106;2023-03-02T00:46:18;39.00;33.75;26.75
29460;PMS7003;16428;47.836;35.106;2023-03-02T00:48:47;42.00;37.00;26.00
29460;PMS7003;16428;47.836;35.106;2023-03-02T00:51:17;42.33;38.67;29.33
29460;PMS7003;16428;47.836;35.106;2023-03-02T00:53:48;50.33;33.67;25.33
29460;PMS7003;16428;47.836;35.106;2023-03-02T00:56:15;43.00;29.33;25.00
29460;PMS7003;16428;47.836;35.106;2023-03-02T00:58:43;38.33;35.67;24.67
29460;PMS7003;16428;47.836;35.106;2023-03-02T01:01:11;46.67;42.33;30.00
29460;PMS7003;16428;47.836;35.106;2023-03-02T01:03:39;55.67;43.00;30.33
29460;PMS7003;16428;47.836;35.106;2023-03-02T01:06:13;41.33;36.33;27.33
29460;PMS7003;16428;47.836;35.106;2023-03-02T01:08:44;52.33;40.33;28.67
29460;PMS7003;16428;47.836;35.106;2023-03-02T01:11:16;42.00;37.00;25.00
29460;PMS7003;16428;47.836;35.106;2023-03-02T01:13:47;49.67;40.00;26.67
29460;PMS7003;16428;47.836;35.106;2023-03-02T01:16:15;43.00;38.33;27.00
29460;PMS7003;16428;47.836;35.106;2023-03-02T01:18:43;36.67;31.00;22.67
29460;PMS7003;16428;47.836;35.106;2023-03-02T01:21:12;45.33;39.33;27.67
29460;PMS7003;16428;47.836;35.106;2023-03-02T01:23:40;50.33;40.00;28.33
29460;PMS7003;16428;47.836;35.106;2023-03-02T01:26:08;38.00;33.33;24.00
29460;PMS7003;16428;47.836;35.106;2023-03-02T01:28:37;44.33;40.00;28.00
29460;PMS7003;16428;47.836;35.106;2023-03-02T01:31:04;59.67;40.00;28.67
29460;PMS7003;16428;47.836;35.106;2023-03-02T01:33:32;48.33;40.67;29.00
29460;PMS7003;16428;47.836;35.106;2023-03-02T01:36:00;44.00;37.00;27.33
29460;PMS7003;16428;47.836;35.106;2023-03-02T01:38:29;60.00;44.33;29.00
29460;PMS7003;16428;47.836;35.106;2023-03-02T01:40:56;50.33;39.33;26.67
29460;PMS7003;16428;47.836;35.106;2023-03-02T01:43:24;46.00;39.67;28.00
29460;PMS7003;16428;47.836;35.106;2023-03-02T01:48:49;45.33;35.67;24.33
29460;PMS7003;16428;47.836;35.106;2023-03-02T01:51:21;50.33;43.00;27.67
29460;PMS7003;16428;47.836;35.106;2023-03-02T01:57:06;53.00;43.00;29.00
29460;PMS7003;16428;47.836;35.106;2023-03-02T01:59:36;44.33;34.33;25.33
29460;PMS7003;16428;47.836;35.106;2023-03-02T02:02:08;33.33;31.00;15.00
29460;PMS7003;16428;47.836;35.106;2023-03-02T02:04:44;42.00;37.67;27.00
29460;PMS7003;16428;47.836;35.106;2023-03-02T02:07:14;48.33;40.00;28.33
29460;PMS7003;16428;47.836;35.106;2023-03-02T02:09:43;43.00;36.67;25.00
29460;PMS7003;16428;47.836;35.106;2023-03-02T02:12:16;40.67;34.33;23.00
29460;PMS7003;16428;47.836;35.106;2023-03-02T02:14:46;39.33;39.33;28.00
29460;PMS7003;16428;47.836;35.106;2023-03-02T02:17:17;26.67;20.00;13.00
29460;PMS7003;16428;47.836;35.106;2023-03-02T02:22:16;46.33;36.33;25.67
29460;PMS7003;16428;47.836;35.106;2023-03-02T02:24:54;38.00;34.00;23.33
29460;PMS7003;16428;47.836;35.106;2023-03-02T02:27:25;31.67;29.67;20.67
29460;PMS7003;16428;47.836;35.106;2023-03-02T02:29:55;41.67;37.33;24.33
29460;PMS7003;16428;47.836;35.106;2023-03-02T02:32:25;44.00;40.00;28.33
29460;PMS7003;16428;47.836;35.106;2023-03-02T02:35:18;42.67;37.67;26.33
29460;PMS7003;16428;47.836;35.106;2023-03-02T02:37:51;50.00;43.00;29.67
29460;PMS7003;16428;47.836;35.106;2023-03-02T02:45:34;41.67;37.00;26.33
29460;PMS7003;16428;47.836;35.106;2023-03-02T02:48:02;39.33;35.67;25.33
29460;PMS7003;16428;47.836;35.106;2023-03-02T02:50:31;41.33;36.00;25.67
29460;PMS7003;16428;47.836;35.106;2023-03-02T02:53:14;40.00;33.33;25.00
29460;PMS7003;16428;47.836;35.106;2023-03-02T02:55:45;26.00;24.33;20.00
29460;PMS7003;16428;47.836;35.106;2023-03-02T03:04:02;32.33;22.00;17.33
29460;PMS7003;16428;47.836;35.106;2023-03-02T03:06:35;40.00;36.00;24.67
29460;PMS7003;16428;47.836;35.106;2023-03-02T03:09:09;38.00;28.00;22.33
29460;PMS7003;16428;47.836;35.106;2023-03-02T03:11:38;43.00;35.33;23.00
29460;PMS7003;16428;47.836;35.106;2023-03-02T03:14:16;38.67;35.00;27.00
29460;PMS7003;16428;47.836;35.106;2023-03-02T03:16:47;35.00;24.33;17.67
29460;PMS7003;16428;47.836;35.106;2023-03-02T03:21:52;45.33;36.33;24.00
29460;PMS7003;16428;47.836;35.106;2023-03-02T03:24:23;34.00;31.67;22.00
29460;PMS7003;16428;47.836;35.106;2023-03-02T03:26:52;39.67;34.33;26.00
29460;PMS7003;16428;47.836;35.106;2023-03-02T03:29:21;31.67;29.00;22.00
29460;PMS7003;16428;47.836;35.106;2023-03-02T03:31:51;40.33;40.00;23.67
29460;PMS7003;16428;47.836;35.106;2023-03-02T03:34:20;34.67;29.00;16.67
29460;PMS7003;16428;47.836;35.106;2023-03-02T03:36:48;41.00;30.00;21.67
29460;PMS7003;16428;47.836;35.106;2023-03-02T03:39:16;38.67;31.67;20.33
29460;PMS7003;16428;47.836;35.106;2023-03-02T03:41:44;49.33;37.67;27.00
29460;PMS7003;16428;47.836;35.106;2023-03-02T03:44:11;43.67;38.67;24.67
29460;PMS7003;16428;47.836;35.106;2023-03-02T03:46:41;38.33;34.00;23.33
29460;PMS7003;16428;47.836;35.106;2023-03-02T03:49:08;26.33;19.67;12.33
29460;PMS7003;16428;47.836;35.106;2023-03-02T03:51:36;43.00;34.67;27.00
29460;PMS7003;16428;47.836;35.106;2023-03-02T03:54:05;36.67;27.33;20.67
29460;PMS7003;16428;47.836;35.106;2023-03-02T03:56:38;40.00;35.33;24.33
29460;PMS7003;16428;47.836;35.106;2023-03-02T03:59:09;40.33;34.33;26.00
29460;PMS7003;16428;47.836;35.106;2023-03-02T04:01:40;46.33;36.67;26.33
29460;PMS7003;16428;47.836;35.106;2023-03-02T04:04:16;34.67;33.33;26.00
29460;PMS7003;16428;47.836;35.106;2023-03-02T04:06:45;28.67;20.33;11.33
29460;PMS7003;16428;47.836;35.106;2023-03-02T04:09:13;26.33;22.33;16.00
29460;PMS7003;16428;47.836;35.106;2023-03-02T04:11:44;32.67;24.00;12.33
29460;PMS7003;16428;47.836;35.106;2023-03-02T04:14:15;35.67;31.67;22.67
29460;PMS7003;16428;47.836;35.106;2023-03-02T04:16:44;36.00;32.33;23.67
29460;PMS7003;16428;47.836;35.106;2023-03-02T04:19:16;34.33;25.00;16.33
29460;PMS7003;16428;47.836;35.106;2023-03-02T04:21:45;42.00;36.67;25.00
29460;PMS7003;16428;47.836;35.106;2023-03-02T04:24:15;48.00;36.33;23.33
29460;PMS7003;16428;47.836;35.106;2023-03-02T04:26:44;34.33;27.33;19.67
29460;PMS7003;16428;47.836;35.106;2023-03-02T04:29:13;39.33;32.33;23.00
29460;PMS7003;16428;47.836;35.106;2023-03-02T04:31:45;35.33;33.67;26.33
29460;PMS7003;16428;47.836;35.106;2023-03-02T04:34:14;38.33;30.33;23.67
29460;PMS7003;16428;47.836;35.106;2023-03-02T04:36:43;35.33;32.00;21.67
29460;PMS7003;16428;47.836;35.106;2023-03-02T04:39:12;33.67;28.33;26.67
29460;PMS7003;16428;47.836;35.106;2023-03-02T04:41:42;41.33;35.00;25.00
29460;PMS7003;16428;47.836;35.106;2023-03-02T04:44:10;42.33;36.67;23.00
29460;PMS7003;16428;47.836;35.106;2023-03-02T04:46:39;58.33;38.67;26.33
29460;PMS7003;16428;47.836;35.106;2023-03-02T04:49:11;46.33;38.00;25.00
29460;PMS7003;16428;47.836;35.106;2023-03-02T04:51:40;33.00;26.67;16.33
29460;PMS7003;16428;47.836;35.106;2023-03-02T04:54:12;53.67;42.33;28.33
29460;PMS7003;16428;47.836;35.106;2023-03-02T04:56:42;60.67;47.00;32.00
29460;PMS7003;16428;47.836;35.106;2023-03-02T04:59:11;36.67;32.67;23.67
29460;PMS7003;16428;47.836;35.106;2023-03-02T05:01:39;43.00;37.67;26.33
29460;PMS7003;16428;47.836;35.106;2023-03-02T05:04:07;45.33;34.67;25.33
29460;PMS7003;16428;47.836;35.106;2023-03-02T05:06:36;44.67;38.00;29.00
29460;PMS7003;16428;47.836;35.106;2023-03-02T05:09:03;35.33;31.00;19.00
29460;PMS7003;16428;47.836;35.106;2023-03-02T05:11:32;55.67;43.33;29.67
29460;PMS7003;16428;47.836;35.106;2023-03-02T05:14:01;42.00;35.00;23.67
29460;PMS7003;16428;47.836;35.106;2023-03-02T05:16:32;42.33;35.33;26.33
29460;PMS7003;16428;47.836;35.106;2023-03-02T05:19:04;47.67;36.33;28.33
29460;PMS7003;16428;47.836;35.106;2023-03-02T05:21:32;45.67;37.67;28.00
29460;PMS7003;16428;47.836;35.106;2023-03-02T05:24:00;30.67;30.33;23.00
29460;PMS7003;16428;47.836;35.106;2023-03-02T05:26:32;100.75;86.25;61.50
29460;PMS7003;16428;47.836;35.106;2023-03-02T05:29:01;41.00;40.67;28.67
29460;PMS7003;16428;47.836;35.106;2023-03-02T05:31:34;34.67;34.67;24.67
29460;PMS7003;16428;47.836;35.106;2023-03-02T05:34:05;46.33;42.67;27.67
29460;PMS7003;16428;47.836;35.106;2023-03-02T05:36:35;36.67;32.67;25.00
29460;PMS7003;16428;47.836;35.106;2023-03-02T05:39:03;39.33;38.00;25.67
29460;PMS7003;16428;47.836;35.106;2023-03-02T05:41:32;38.00;31.67;24.33
29460;PMS7003;16428;47.836;35.106;2023-03-02T05:44:01;40.33;35.33;28.00
29460;PMS7003;16428;47.836;35.106;2023-03-02T05:46:30;47.33;35.67;27.00
29460;PMS7003;16428;47.836;35.106;2023-03-02T05:48:58;39.33;36.00;26.67
29460;PMS7003;16428;47.836;35.106;2023-03-02T05:51:28;38.33;33.00;23.33
29460;PMS7003;16428;47.836;35.106;2023-03-02T05:53:55;40.00;33.33;24.00
29460;PMS7003;16428;47.836;35.106;2023-03-02T05:56:23;41.75;35.50;22.50
29460;PMS7003;16428;47.836;35.106;2023-03-02T05:58:50;33.50;32.00;20.50
29460;PMS7003;16428;47.836;35.106;2023-03-02T06:01:17;36.75;33.75;21.50
29460;PMS7003;16428;47.836;35.106;2023-03-02T06:03:45;49.00;37.25;23.75
29460;PMS7003;16428;47.836;35.106;2023-03-02T06:06:13;40.75;30.25;20.25
29460;PMS7003;16428;47.836;35.106;2023-03-02T06:08:45;31.75;31.75;21.00
29460;PMS7003;16428;47.836;35.106;2023-03-02T06:11:13;27.25;23.75;19.00
29460;PMS7003;16428;47.836;35.106;2023-03-02T06:13:40;43.00;38.00;28.00
29460;PMS7003;16428;47.836;35.106;2023-03-02T06:16:09;38.25;30.00;24.25
29460;PMS7003;16428;47.836;35.106;2023-03-02T06:18:37;35.50;31.25;25.50
29460;PMS7003;16428;47.836;35.106;2023-03-02T06:21:08;36.75;32.00;22.00
29460;PMS7003;16428;47.836;35.106;2023-03-02T06:23:36;38.00;35.50;23.50
29460;PMS7003;16428;47.836;35.106;2023-03-02T06:26:07;29.50;26.50;18.50
29460;PMS7003;16428;47.836;35.106;2023-03-02T06:28:40;31.50;30.50;19.25
29460;PMS7003;16428;47.836;35.106;2023-03-02T06:31:22;19.00;19.00;10.50
29460;PMS7003;16428;47.836;35.106;2023-03-02T06:33:50;38.75;27.00;20.75
29460;PMS7003;16428;47.836;35.106;2023-03-02T06:36:17;32.25;28.25;22.25
29460;PMS7003;16428;47.836;35.106;2023-03-02T06:38:45;40.25;38.25;27.75
29460;PMS7003;16428;47.836;35.106;2023-03-02T06:41:14;37.50;30.25;21.25
29460;PMS7003;16428;47.836;35.106;2023-03-02T06:43:42;27.75;27.25;19.00
29460;PMS7003;16428;47.836;35.106;2023-03-02T06:46:09;37.75;33.25;25.75
29460;PMS7003;16428;47.836;35.106;2023-03-02T06:48:37;36.00;31.00;24.50
29460;PMS7003;16428;47.836;35.106;2023-03-02T06:51:06;30.50;24.75;19.50
29460;PMS7003;16428;47.836;35.106;2023-03-02T06:53:35;30.25;24.25;17.75
29460;PMS7003;16428;47.836;35.106;2023-03-02T06:56:04;24.00;21.75;15.25
29460;PMS7003;16428;47.836;35.106;2023-03-02T06:58:33;28.50;24.25;18.50
29460;PMS7003;16428;47.836;35.106;2023-03-02T07:01:01;30.75;22.00;17.50
29460;PMS7003;16428;47.836;35.106;2023-03-02T07:03:30;34.50;31.00;23.75
29460;PMS7003;16428;47.836;35.106;2023-03-02T07:05:58;21.00;19.25;15.75
29460;PMS7003;16428;47.836;35.106;2023-03-02T07:08:27;19.25;17.75;15.75
29460;PMS7003;16428;47.836;35.106;2023-03-02T07:10:55;31.25;23.25;19.25
29460;PMS7003;16428;47.836;35.106;2023-03-02T07:13:22;22.50;17.00;14.00
29460;PMS7003;16428;47.836;35.106;2023-03-02T07:15:58;26.50;22.00;16.00
29460;PMS7003;16428;47.836;35.106;2023-03-02T07:18:25;22.25;21.00;14.00
29460;PMS7003;16428;47.836;35.106;2023-03-02T07:20:53;19.50;14.75;12.00
29460;PMS7003;16428;47.836;35.106;2023-03-02T07:23:21;13.25;12.75;12.00
29460;PMS7003;16428;47.836;35.106;2023-03-02T07:25:49;16.50;12.25;8.25
29460;PMS7003;16428;47.836;35.106;2023-03-02T07:28:18;24.00;19.75;13.50
29460;PMS7003;16428;47.836;35.106;2023-03-02T07:30:48;13.00;12.25;11.00
29460;PMS7003;16428;47.836;35.106;2023-03-02T07:33:15;17.00;12.75;11.50
29460;PMS7003;16428;47.836;35.106;2023-03-02T07:35:43;16.50;13.25;11.00
29460;PMS7003;16428;47.836;35.106;2023-03-02T07:38:11;13.50;13.50;10.75
29460;PMS7003;16428;47.836;35.106;2023-03-02T07:40:40;10.25;10.25;7.50
29460;PMS7003;16428;47.836;35.106;2023-03-02T07:43:08;11.75;10.00;9.75
29460;PMS7003;16428;47.836;35.106;2023-03-02T07:45:36;12.00;12.00;9.00
29460;PMS7003;16428;47.836;35.106;2023-03-02T07:48:04;15.25;14.00;11.75
29460;PMS7003;16428;47.836;35.106;2023-03-02T07:50:36;14.25;9.75;8.00
29460;PMS7003;16428;47.836;35.106;2023-03-02T07:53:04;12.50;9.25;8.50
29460;PMS7003;16428;47.836;35.106;2023-03-02T07:55:32;14.25;12.00;9.25
29460;PMS7003;16428;47.836;35.106;2023-03-02T07:57:59;7.00;7.00;4.00
29460;PMS7003;16428;47.836;35.106;2023-03-02T08:00:27;4.75;4.75;4.00
29460;PMS7003;16428;47.836;35.106;2023-03-02T08:02:55;10.75;5.75;3.50
29460;PMS7003;16428;47.836;35.106;2023-03-02T08:05:27;8.50;8.50;8.00
29460;PMS7003;16428;47.836;35.106;2023-03-02T08:07:54;8.00;8.00;7.00
29460;PMS7003;16428;47.836;35.106;2023-03-02T08:10:22;4.25;4.25;3.75
29460;PMS7003;16428;47.836;35.106;2023-03-02T08:12:49;2.00;2.00;1.00
29460;PMS7003;16428;47.836;35.106;2023-03-02T08:15:17;4.00;3.25;2.50
29460;PMS7003;16428;47.836;35.106;2023-03-02T08:17:44;2.00;2.00;2.00
29460;PMS7003;16428;47.836;35.106;2023-03-02T08:20:13;4.00;4.00;3.50
29460;PMS7003;16428;47.836;35.106;2023-03-02T08:22:42;2.00;1.00;1.00
29460;PMS7003;16428;47.836;35.106;2023-03-02T08:25:09;3.00;3.00;3.00
29460;PMS7003;16428;47.836;35.106;2023-03-02T08:27:39;4.50;3.00;3.00
29460;PMS7003;16428;47.836;35.106;2023-03-02T08:30:07;3.50;2.00;1.25
29460;PMS7003;16428;47.836;35.106;2023-03-02T08:32:35;3.50;3.50;3.00
29460;PMS7003;16428;47.836;35.106;2023-03-02T08:35:04;5.25;4.00;4.00
29460;PMS7003;16428;47.836;35.106;2023-03-02T08:37:33;6.50;6.50;4.00
29460;PMS7003;16428;47.836;35.106;2023-03-02T08:40:00;3.25;2.00;2.00
29460;PMS7003;16428;47.836;35.106;2023-03-02T08:42:28;2.25;2.25;1.00
29460;PMS7003;16428;47.836;35.106;2023-03-02T08:44:57;3.50;2.75;2.25
29460;PMS7003;16428;47.836;35.106;2023-03-02T08:47:24;4.25;2.75;2.00
29460;PMS7003;16428;47.836;35.106;2023-03-02T08:49:52;7.75;4.75;4.00
29460;PMS7003;16428;47.836;35.106;2023-03-02T08:52:20;3.00;2.00;2.00
29460;PMS7003;16428;47.836;35.106;2023-03-02T08:54:48;2.00;2.00;2.00
29460;PMS7003;16428;47.836;35.106;2023-03-02T08:57:16;9.50;2.50;2.25
29460;PMS7003;16428;47.836;35.106;2023-03-02T08:59:46;2.50;2.50;2.25
29460;PMS7003;16428;47.836;35.106;2023-03-02T09:02:13;2.00;2.00;2.00
29460;PMS7003;16428;47.836;35.106;2023-03-02T09:04:41;3.25;3.25;3.00
29460;PMS7003;16428;47.836;35.106;2023-03-02T09:07:09;4.00;2.75;2.75
29460;PMS7003;16428;47.836;35.106;2023-03-02T09:09:36;3.50;3.00;2.00
29460;PMS7003;16428;47.836;35.106;2023-03-02T09:12:04;7.75;4.50;4.00
29460;PMS7003;16428;47.836;35.106;2023-03-02T09:14:32;4.50;4.50;3.50
29460;PMS7003;16428;47.836;35.106;2023-03-02T09:17:03;1.00;1.00;0.00
29460;PMS7003;16428;47.836;35.106;2023-03-02T09:19:31;7.00;3.75;3.25
29460;PMS7003;16428;47.836;35.106;2023-03-02T09:22:10;3.75;3.75;3.00
29460;PMS7003;16428;47.836;35.106;2023-03-02T09:24:38;5.00;5.00;4.00
29460;PMS7003;16428;47.836;35.106;2023-03-02T09:27:05;3.00;2.00;2.00
29460;PMS7003;16428;47.836;35.106;2023-03-02T09:29:33;1.25;1.25;1.25
29460;PMS7003;16428;47.836;35.106;2023-03-02T09:32:00;2.50;2.50;2.50
29460;PMS7003;16428;47.836;35.106;2023-03-02T09:34:28;5.25;3.50;3.00
29460;PMS7003;16428;47.836;35.106;2023-03-02T09:36:56;2.75;2.75;2.00
29460;PMS7003;16428;47.836;35.106;2023-03-02T09:39:23;5.50;3.75;3.00
29460;PMS7003;16428;47.836;35.106;2023-03-02T09:47:23;2.50;2.00;2.00
29460;PMS7003;16428;47.836;35.106;2023-03-02T09:55:50;2.00;2.00;1.50
29460;PMS7003;16428;47.836;35.106;2023-03-02T09:58:22;2.75;2.75;2.50
29460;PMS7003;16428;47.836;35.106;2023-03-02T10:00:55;3.25;3.25;2.00
29460;PMS7003;16428;47.836;35.106;2023-03-02T10:03:28;2.75;2.00;1.25
29460;PMS7003;16428;47.836;35.106;2023-03-02T10:06:04;2.75;2.75;2.00
29460;PMS7003;16428;47.836;35.106;2023-03-02T10:08:33;1.00;1.00;1.00
29460;PMS7003;16428;47.836;35.106;2023-03-02T10:13:33;3.75;3.25;2.25
29460;PMS7003;16428;47.836;35.106;2023-03-02T10:16:18;3.00;3.00;3.00
29460;PMS7003;16428;47.836;35.106;2023-03-02T10:21:55;5.50;5.00;3.00
29460;PMS7003;16428;47.836;35.106;2023-03-02T10:27:51;5.00;1.75;1.00
29460;PMS7003;16428;47.836;35.106;2023-03-02T10:30:43;3.75;3.50;3.25
29460;PMS7003;16428;47.836;35.106;2023-03-02T10:33:16;4.50;3.00;3.00
29460;PMS7003;16428;47.836;35.106;2023-03-02T10:35:47;5.00;5.00;4.75
29460;PMS7003;16428;47.836;35.106;2023-03-02T10:38:19;5.00;4.00;4.00
29460;PMS7003;16428;47.836;35.106;2023-03-02T10:46:03;9.67;3.67;2.67
29460;PMS7003;16428;47.836;35.106;2023-03-02T10:48:54;3.00;3.00;2.33
29460;PMS7003;16428;47.836;35.106;2023-03-02T10:51:28;2.00;2.00;2.00
29460;PMS7003;16428;47.836;35.106;2023-03-02T10:54:22;3.50;3.50;3.00
29460;PMS7003;16428;47.836;35.106;2023-03-02T10:57:02;8.50;4.25;3.50
29460;PMS7003;16428;47.836;35.106;2023-03-02T11:02:14;3.25;1.50;1.00
29460;PMS7003;16428;47.836;35.106;2023-03-02T11:04:53;4.50;4.00;2.50
29460;PMS7003;16428;47.836;35.106;2023-03-02T11:07:25;2.00;2.00;2.00
29460;PMS7003;16428;47.836;35.106;2023-03-02T11:10:03;3.25;3.25;3.00
29460;PMS7003;16428;47.836;35.106;2023-03-02T11:12:33;3.75;3.75;3.25
29460;PMS7003;16428;47.836;35.106;2023-03-02T11:17:35;5.00;3.00;2.00
29460;PMS7003;16428;47.836;35.106;2023-03-02T11:20:07;6.00;4.33;2.33
29460;PMS7003;16428;47.836;35.106;2023-03-02T11:25:38;3.33;3.33;3.00
29460;PMS7003;16428;47.836;35.106;2023-03-02T11:30:55;3.33;3.33;2.00
29460;PMS7003;16428;47.836;35.106;2023-03-02T11:33:29;3.33;3.33;3.00
29460;PMS7003;16428;47.836;35.106;2023-03-02T11:36:15;6.00;4.00;3.00
29460;PMS7003;16428;47.836;35.106;2023-03-02T11:38:47;5.33;2.67;2.00
29460;PMS7003;16428;47.836;35.106;2023-03-02T11:41:29;2.33;2.33;2.00
29460;PMS7003;16428;47.836;35.106;2023-03-02T11:44:00;2.67;2.67;2.67
29460;PMS7003;16428;47.836;35.106;2023-03-02T11:46:38;4.00;4.00;2.33
29460;PMS7003;16428;47.836;35.106;2023-03-02T11:49:10;6.00;4.00;3.00
29460;PMS7003;16428;47.836;35.106;2023-03-02T11:51:55;1.00;1.00;1.00
29460;PMS7003;16428;47.836;35.106;2023-03-02T11:54:28;5.33;3.67;3.00
29460;PMS7003;16428;47.836;35.106;2023-03-02T11:57:03;2.33;2.33;1.67
29460;PMS7003;16428;47.836;35.106;2023-03-02T11:59:31;4.33;1.67;1.67
29460;PMS7003;16428;47.836;35.106;2023-03-02T12:02:01;0.00;0.00;0.00
29460;PMS7003;16428;47.836;35.106;2023-03-02T12:04:31;6.33;4.67;4.00
29460;PMS7003;16428;47.836;35.106;2023-03-02T12:07:15;3.00;3.00;3.00
29460;PMS7003;16428;47.836;35.106;2023-03-02T12:15:34;3.33;2.00;1.00
29460;PMS7003;16428;47.836;35.106;2023-03-02T12:19:09;2.33;2.33;2.00
29460;PMS7003;16428;47.836;35.106;2023-03-02T12:21:20;4.00;4.00;4.00
29460;PMS7003;16428;47.836;35.106;2023-03-02T12:28:57;2.67;2.67;2.00
29460;PMS7003;16428;47.836;35.106;2023-03-02T12:31:47;5.00;2.00;2.00
29460;PMS7003;16428;47.836;35.106;2023-03-02T12:36:52;8.25;3.25;3.00
29460;PMS7003;16428;47.836;35.106;2023-03-02T12:47:27;6.00;6.00;4.33
29460;PMS7003;16428;47.836;35.106;2023-03-02T12:50:00;7.00;5.00;4.75
29460;PMS7003;16428;47.836;35.106;2023-03-02T12:52:34;3.00;3.00;2.50
29460;PMS7003;16428;47.836;35.106;2023-03-02T12:55:11;2.00;2.00;2.00
29460;PMS7003;16428;47.836;35.106;2023-03-02T12:57:49;3.75;3.75;2.50
29460;PMS7003;16428;47.836;35.106;2023-03-02T13:00:25;1.00;1.00;1.00
29460;PMS7003;16428;47.836;35.106;2023-03-02T13:02:58;5.00;4.25;4.00
29460;PMS7003;16428;47.836;35.106;2023-03-02T13:05:30;3.25;3.25;3.00
29460;PMS7003;16428;47.836;35.106;2023-03-02T13:08:03;2.75;2.75;2.75
29460;PMS7003;16428;47.836;35.106;2023-03-02T13:10:35;2.00;2.00;2.00
29460;PMS7003;16428;47.836;35.106;2023-03-02T13:16:01;1.00;1.00;1.00
29460;PMS7003;16428;47.836;35.106;2023-03-02T13:18:49;5.00;5.00;5.00
29460;PMS7003;16428;47.836;35.106;2023-03-02T13:21:27;3.75;3.75;3.00
29460;PMS7003;16428;47.836;35.106;2023-03-02T13:23:59;3.50;3.50;3.50
29460;PMS7003;16428;47.836;35.106;2023-03-02T13:26:32;3.00;3.00;2.75
29460;PMS7003;16428;47.836;35.106;2023-03-02T13:31:38;1.50;1.50;1.50
29460;PMS7003;16428;47.836;35.106;2023-03-02T13:34:16;2.75;2.75;2.00
29460;PMS7003;16428;47.836;35.106;2023-03-02T13:36:53;4.75;4.75;4.00
29460;PMS7003;16428;47.836;35.106;2023-03-02T13:39:27;4.50;2.00;2.00
29460;PMS7003;16428;47.836;35.106;2023-03-02T13:41:58;3.75;2.50;2.00
29460;PMS7003;16428;47.836;35.106;2023-03-02T13:44:29;1.50;1.50;1.25
29460;PMS7003;16428;47.836;35.106;2023-03-02T13:46:59;3.00;3.00;2.00
29460;PMS7003;16428;47.836;35.106;2023-03-02T13:49:36;3.00;2.00;2.00
29460;PMS7003;16428;47.836;35.106;2023-03-02T13:52:04;3.00;3.00;2.25
29460;PMS7003;16428;47.836;35.106;2023-03-02T13:54:40;2.50;2.50;2.00
29460;PMS7003;16428;47.836;35.106;2023-03-02T13:57:14;3.00;3.00;3.00
29460;PMS7003;16428;47.836;35.106;2023-03-02T13:59:48;11.00;8.50;7.50
29460;PMS7003;16428;47.836;35.106;2023-03-02T14:02:18;7.00;5.00;4.00
29460;PMS7003;16428;47.836;35.106;2023-03-02T14:04:53;4.75;4.75;4.00
29460;PMS7003;16428;47.836;35.106;2023-03-02T14:07:22;3.25;3.25;2.75
29460;PMS7003;16428;47.836;35.106;2023-03-02T14:09:50;3.75;3.75;3.25
29460;PMS7003;16428;47.836;35.106;2023-03-02T14:12:21;7.00;6.00;5.00
29460;PMS7003;16428;47.836;35.106;2023-03-02T14:14:53;2.25;2.25;1.75
29460;PMS7003;16428;47.836;35.106;2023-03-02T14:17:24;3.75;3.75;3.00
29460;PMS7003;16428;47.836;35.106;2023-03-02T14:19:54;9.25;6.00;5.00
29460;PMS7003;16428;47.836;35.106;2023-03-02T14:22:23;6.25;4.75;4.25
29460;PMS7003;16428;47.836;35.106;2023-03-02T14:24:54;6.75;3.25;3.00
29460;PMS7003;16428;47.836;35.106;2023-03-02T14:27:21;4.00;4.00;3.50
29460;PMS7003;16428;47.836;35.106;2023-03-02T14:29:56;2.75;2.75;2.25
29460;PMS7003;16428;47.836;35.106;2023-03-02T14:32:25;3.00;2.25;2.00
29460;PMS7003;16428;47.836;35.106;2023-03-02T14:34:52;4.00;4.00;4.00
29460;PMS7003;16428;47.836;35.106;2023-03-02T14:37:20;5.00;5.00;5.00
29460;PMS7003;16428;47.836;35.106;2023-03-02T14:39:53;3.25;2.50;2.50
29460;PMS7003;16428;47.836;35.106;2023-03-02T14:42:21;7.00;4.75;4.00
29460;PMS7003;16428;47.836;35.106;2023-03-02T14:44:49;3.50;3.50;3.00
29460;PMS7003;16428;47.836;35.106;2023-03-02T14:47:17;7.33;5.67;4.33
29460;PMS7003;16428;47.836;35.106;2023-03-02T14:49:45;3.33;3.33;3.33
29460;PMS7003;16428;47.836;35.106;2023-03-02T14:52:19;5.67;3.67;3.33
29460;PMS7003;16428;47.836;35.106;2023-03-02T14:54:58;5.50;4.75;3.00
29460;PMS7003;16428;47.836;35.106;2023-03-02T14:57:57;4.00;4.00;3.25
29460;PMS7003;16428;47.836;35.106;2023-03-02T15:00:26;3.75;3.75;3.25
29460;PMS7003;16428;47.836;35.106;2023-03-02T15:02:54;5.00;3.00;3.00
29460;PMS7003;16428;47.836;35.106;2023-03-02T15:05:22;2.00;2.00;2.00
29460;PMS7003;16428;47.836;35.106;2023-03-02T15:07:50;4.00;2.00;1.50
29460;PMS7003;16428;47.836;35.106;2023-03-02T15:10:20;1.75;1.75;1.75
29460;PMS7003;16428;47.836;35.106;2023-03-02T15:12:49;3.50;3.00;2.50
29460;PMS7003;16428;47.836;35.106;2023-03-02T15:15:19;4.50;2.75;2.00
29460;PMS7003;16428;47.836;35.106;2023-03-02T15:17:46;4.00;4.00;3.50
29460;PMS7003;16428;47.836;35.106;2023-03-02T15:20:15;5.25;4.00;3.00
29460;PMS7003;16428;47.836;35.106;2023-03-02T15:22:45;5.00;5.00;4.75
29460;PMS7003;16428;47.836;35.106;2023-03-02T15:25:12;10.75;10.75;6.75
29460;PMS7003;16428;47.836;35.106;2023-03-02T15:27:40;9.00;9.00;7.25
29460;PMS7003;16428;47.836;35.106;2023-03-02T15:30:08;8.00;8.00;7.25
29460;PMS7003;16428;47.836;35.106;2023-03-02T15:32:38;7.00;7.00;6.00
29460;PMS7003;16428;47.836;35.106;2023-03-02T15:35:06;10.00;8.25;5.50
29460;PMS7003;16428;47.836;35.106;2023-03-02T15:37:37;8.75;8.50;6.50